Wednesday, August 24, 2016, 7:08 PM EDT

KMUI, Muir Army Air Field / Indiantown

Location: Jonestown, PA, United States Lat: 40.433
Local Time: 7:08 PM EDT (23:08 GMT) Lon: -76.567
Time Zone: US/Eastern Elev: 488 ft

Show me the last for .
Show Decoded

2016-08-24 18:58 METAR KMUI 242258Z AUTO 17005KT 10SM CLR 27/18 A3015 RMK AO2 SLP210 T02700184 =
2016-08-24 17:58 METAR KMUI 242158Z AUTO 18006KT 10SM SCT055 28/19 A3017 RMK AO2 SLP217 T02760186
                 =
2016-08-24 16:58 METAR KMUI 242058Z AUTO 19006KT 10SM SCT050 29/17 A3018 RMK AO2 SLP220 T02890172
                 =
2016-08-24 15:58 METAR KMUI 241958Z AUTO 18007KT 10SM SCT050 28/17 A3020 RMK AO2 SLP227 T02840172
                 =
2016-08-24 14:58 METAR KMUI 241858Z AUTO 19005KT 10SM SCT048 28/18 A3021 RMK AO2 SLP230 T02820175
                 =
2016-08-24 13:58 METAR KMUI 241758Z 20008KT 10SM FEW044 28/17 A3023 RMK AO2A SLP237 T02790173
                 10279 20169 57020 =
2016-08-24 12:58 METAR KMUI 241658Z AUTO VRB05KT 10SM CLR 27/17 A3025 RMK AO2 SLP244 T02690173 =
2016-08-24 11:58 METAR KMUI 241558Z 19008KT 10SM CLR 26/18 A3027 RMK AO2A SLP251 T02550180 =
2016-08-24 10:58 METAR KMUI 241458Z 00000KT 10SM CLR 24/17 A3029 RMK AO2A SLP258 T02370165 57008
                 =
2016-08-24 09:58 METAR KMUI 241358Z VRB02KT 10SM CLR 22/17 A3030 RMK AO2A SLP262 T02200166 =
2016-08-24 08:58 METAR KMUI 241258Z AUTO 00000KT 10SM CLR 20/16 A3031 RMK AO2 SLP265 T02040161 =
2016-08-24 07:58 METAR KMUI 241158Z AUTO 07002KT 10SM CLR 17/16 A3031 RMK AO2 SLP265 T01690156
                 10169 20138 52010 =
2016-08-24 06:58 METAR KMUI 241058Z AUTO 00000KT 10SM CLR 14/14 A3030 RMK AO2 SLP262 T01420140 =
2016-08-24 05:58 METAR KMUI 240958Z AUTO 00000KT 10SM CLR 14/14 A3029 RMK AO2 SLP258 T01410138 =
2016-08-24 04:58 METAR KMUI 240858Z AUTO VRB01KT 10SM CLR 14/14 A3028 RMK AO2 SLP255 T01430140
                 55003 =
2016-08-24 03:58 METAR KMUI 240758Z AUTO 00000KT 10SM CLR 15/15 A3028 RMK AO2 SLP255 T01480145 =
2016-08-24 02:58 METAR KMUI 240658Z AUTO 00000KT 10SM CLR 15/15 A3028 RMK AO2 SLP255 T01480145 =
2016-08-24 01:58 METAR KMUI 240558Z AUTO 00000KT 10SM CLR 15/15 A3029 RMK AO2 SLP258 T01520146
                 10202 20152 50001 =
2016-08-24 00:58 METAR KMUI 240458Z AUTO 04002KT 10SM CLR 16/15 A3030 RMK AO2 SLP261 T01560148
                 402730107 =
2016-08-23 23:58 METAR KMUI 240358Z AUTO 00000KT 10SM CLR 16/15 A3030 RMK AO2 SLP262 T01640151 =
2016-08-23 22:58 METAR KMUI 240258Z AUTO 00000KT 10SM CLR 17/15 A3029 RMK AO2 SLP258 T01710149
                 52011 =
2016-08-23 21:58 METAR KMUI 240158Z AUTO 07002KT 10SM CLR 18/15 A3028 RMK AO2 SLP255 T01750149 =
2016-08-23 20:58 METAR KMUI 240058Z AUTO 35002KT 10SM CLR 19/14 A3026 RMK AO2 SLP248 T01920143 =
2016-08-23 19:58 METAR KMUI 232358Z 34002KT 10SM FEW250 21/16 A3025 RMK AO2A SLP246 T02050161
                 10273 20205 55004 =

Support USWX by starting your Amazon purchase here.